createdAt,value
2018-09-11T00:01:50.337Z,6.43
2018-09-11T00:06:44.880Z,7.10
2018-09-11T00:27:53.848Z,5.70
2018-09-11T00:32:48.359Z,4.87
2018-09-11T00:37:42.861Z,6.80
2018-09-11T00:42:37.354Z,6.00
2018-09-11T00:47:31.840Z,6.43
2018-09-11T00:52:26.345Z,5.73
2018-09-11T00:57:20.875Z,5.47
2018-09-11T01:18:31.073Z,5.70
2018-09-11T01:23:25.577Z,7.87
2018-09-11T01:28:20.100Z,8.27
2018-09-11T01:33:14.615Z,8.37
2018-09-11T01:38:09.138Z,6.50
2018-09-11T01:43:03.656Z,6.53
2018-09-11T01:47:58.200Z,6.03
2018-09-11T02:09:10.888Z,7.30
2018-09-11T02:14:05.615Z,7.67
2018-09-11T02:19:00.096Z,6.93
2018-09-11T02:23:54.683Z,7.70
2018-09-11T02:28:49.185Z,8.47
2018-09-11T02:33:43.704Z,7.40
2018-09-11T02:38:38.242Z,6.70
2018-09-11T02:59:48.018Z,8.10
2018-09-11T03:04:42.508Z,8.23
2018-09-11T03:09:37.021Z,8.63
2018-09-11T03:14:31.516Z,7.50
2018-09-11T03:19:26.026Z,9.47
2018-09-11T03:24:20.608Z,8.00
2018-09-11T03:29:15.137Z,7.93
2018-09-11T03:50:25.005Z,8.03
2018-09-11T03:55:19.517Z,9.80
2018-09-11T04:00:14.148Z,6.93
2018-09-11T04:05:08.648Z,8.17
2018-09-11T04:10:03.192Z,7.77
2018-09-11T04:14:57.709Z,8.20
2018-09-11T04:19:52.256Z,7.93
2018-09-11T04:41:02.038Z,8.77
2018-09-11T04:45:56.649Z,8.87
2018-09-11T04:50:51.174Z,9.97
2018-09-11T04:55:45.660Z,10.77
2018-09-11T05:00:40.176Z,11.80
2018-09-11T05:05:34.682Z,11.80
2018-09-11T05:10:29.260Z,8.23
2018-09-11T05:31:38.536Z,11.13
2018-09-11T05:36:33.101Z,10.33
2018-09-11T05:41:27.669Z,12.53
2018-09-11T05:46:22.217Z,13.27
2018-09-11T05:51:16.803Z,7.63
2018-09-11T05:56:11.357Z,10.93
2018-09-11T06:01:06.112Z,9.20
2018-09-11T06:22:18.569Z,9.23
2018-09-11T06:27:14.770Z,8.90
2018-09-11T06:32:23.222Z,11.05
2018-09-11T06:37:22.114Z,8.73
2018-09-11T06:42:17.298Z,10.77
2018-09-11T06:47:12.434Z,10.43
2018-09-11T07:08:22.057Z,11.20
2018-09-11T07:13:16.951Z,12.17
2018-09-11T07:18:11.649Z,16.67
2018-09-11T07:23:06.345Z,15.75
2018-09-11T07:28:03.204Z,12.05
2018-09-11T07:32:57.751Z,14.63
2018-09-11T07:37:52.339Z,13.38
2018-09-11T07:59:01.661Z,15.43
2018-09-11T08:03:57.446Z,13.38
2018-09-11T08:08:52.099Z,18.02
2018-09-11T08:13:46.654Z,22.05
2018-09-11T08:18:42.524Z,15.95
2018-09-11T08:23:37.646Z,14.20
2018-09-11T08:28:34.099Z,10.08
2018-09-11T08:49:43.709Z,11.63
2018-09-11T08:54:38.323Z,14.25
2018-09-11T08:59:33.638Z,15.15
2018-09-11T09:04:28.666Z,12.28
2018-09-11T09:09:23.878Z,8.25
2018-09-11T09:14:25.910Z,12.00
2018-09-11T09:19:21.550Z,10.03
2018-09-11T09:40:31.564Z,12.00
2018-09-11T09:45:26.216Z,13.32
2018-09-11T09:50:20.875Z,10.15
2018-09-11T09:55:16.160Z,10.65
2018-09-11T10:00:10.832Z,10.68
2018-09-11T10:05:05.538Z,10.25
2018-09-11T10:10:00.316Z,11.50
2018-09-11T10:31:09.828Z,9.30
2018-09-11T10:36:04.440Z,8.45
2018-09-11T10:40:59.376Z,7.85
2018-09-11T10:45:54.913Z,8.35
2018-09-11T10:50:50.605Z,8.95
2018-09-11T10:55:48.403Z,8.00
2018-09-11T11:00:43.333Z,8.65
2018-09-11T11:21:52.732Z,8.78
2018-09-11T11:26:47.277Z,7.90
2018-09-11T11:31:41.855Z,8.55
2018-09-11T11:36:36.646Z,6.15
2018-09-11T11:41:31.184Z,8.45
2018-09-11T11:46:25.743Z,6.50
2018-09-11T11:51:20.317Z,6.75
2018-09-11T12:12:29.388Z,7.62
2018-09-11T12:17:23.894Z,4.53
2018-09-11T12:22:18.463Z,6.28
2018-09-11T12:27:13.145Z,4.65
2018-09-11T12:32:07.695Z,5.37
2018-09-11T12:37:02.288Z,7.35
2018-09-11T12:41:57.839Z,4.20
2018-09-11T13:03:09.924Z,5.17
2018-09-11T13:08:05.320Z,6.42
2018-09-11T13:13:00.507Z,5.85
2018-09-11T13:17:58.006Z,6.47
2018-09-11T13:22:53.097Z,3.95
2018-09-11T13:27:48.231Z,9.05
2018-09-11T13:32:44.609Z,11.12
2018-09-11T13:53:54.909Z,5.20
2018-09-11T13:58:50.195Z,8.55
2018-09-11T14:03:45.137Z,6.72
2018-09-11T14:08:39.747Z,4.75
2018-09-11T14:13:34.185Z,4.60
2018-09-11T14:18:38.606Z,4.45
2018-09-11T14:39:52.193Z,6.20
2018-09-11T14:44:47.826Z,3.42
2018-09-11T14:49:42.528Z,6.90
2018-09-11T14:54:37.178Z,4.33
2018-09-11T14:59:31.771Z,3.60
2018-09-11T15:04:26.679Z,6.12
2018-09-11T15:09:23.567Z,5.10
2018-09-11T15:30:33.762Z,7.92
2018-09-11T15:35:28.394Z,9.88
2018-09-11T15:40:23.485Z,7.28
2018-09-11T15:45:18.914Z,7.37
2018-09-11T15:50:14.856Z,5.58
2018-09-11T15:55:09.519Z,8.35
2018-09-11T16:00:05.114Z,7.30
2018-09-11T16:21:14.375Z,6.60
2018-09-11T16:26:09.508Z,7.30
2018-09-11T16:31:04.185Z,7.10
2018-09-11T16:35:59.113Z,7.47
2018-09-11T16:40:54.032Z,8.48
2018-09-11T16:45:48.619Z,7.10
2018-09-11T16:50:44.040Z,7.72
2018-09-11T17:11:53.434Z,9.93
2018-09-11T17:16:48.571Z,8.60
2018-09-11T17:21:43.308Z,9.18
2018-09-11T17:26:37.964Z,7.80
2018-09-11T17:31:32.795Z,10.95
2018-09-11T17:36:27.463Z,7.60
2018-09-11T17:41:22.122Z,8.50
2018-09-11T18:02:34.501Z,7.97
2018-09-11T18:07:29.903Z,11.57
2018-09-11T18:12:24.826Z,8.20
2018-09-11T18:17:20.494Z,12.82
2018-09-11T18:22:15.341Z,11.40
2018-09-11T18:27:09.970Z,11.05
2018-09-11T18:32:04.622Z,10.48
2018-09-11T18:53:14.368Z,11.10
2018-09-11T18:58:08.964Z,9.50
2018-09-11T19:03:04.079Z,8.85
2018-09-11T19:07:59.507Z,8.60
2018-09-11T19:12:54.205Z,9.20
2018-09-11T19:17:49.046Z,7.80
2018-09-11T19:22:43.720Z,9.73
2018-09-11T19:43:53.319Z,11.90
2018-09-11T19:48:47.975Z,11.73
2018-09-11T19:53:43.163Z,10.00
2018-09-11T19:58:38.656Z,9.77
2018-09-11T20:03:33.915Z,11.97
2018-09-11T20:08:28.811Z,12.00
2018-09-11T20:13:23.512Z,13.50
2018-09-11T20:34:33.370Z,9.10
2018-09-11T20:39:28.250Z,12.87
2018-09-11T20:44:23.016Z,13.20
2018-09-11T20:49:17.625Z,8.93
2018-09-11T20:54:12.903Z,11.43
2018-09-11T20:59:07.503Z,11.00
2018-09-11T21:04:02.185Z,12.37
2018-09-11T21:25:11.790Z,8.97
2018-09-11T21:30:06.598Z,10.37
2018-09-11T21:35:01.351Z,10.77
2018-09-11T21:39:55.992Z,11.57
2018-09-11T21:44:50.602Z,10.03
2018-09-11T21:49:45.228Z,12.03
2018-09-11T21:54:40.824Z,11.73
2018-09-11T22:15:49.454Z,9.70
2018-09-11T22:20:44.055Z,12.27
2018-09-11T22:25:38.724Z,11.17
2018-09-11T22:30:33.499Z,12.60
2018-09-11T22:35:28.112Z,10.77
2018-09-11T22:40:23.208Z,13.97
2018-09-11T22:45:17.856Z,12.20
2018-09-11T23:06:27.367Z,7.90
2018-09-11T23:11:22.063Z,9.97
2018-09-11T23:16:16.764Z,11.57
2018-09-11T23:21:11.392Z,12.30
2018-09-11T23:26:06.074Z,10.87
2018-09-11T23:31:00.721Z,10.30
2018-09-11T23:52:10.687Z,11.73
2018-09-11T23:57:05.347Z,9.97
